Wednesday, December 19, 2018, 12:34 AM EST
Back to Local

KGON, Groton/new London Airport

Location: Groton, CT, United States Lat: 41.333
Local Time: 12:34 AM EST ( 5:34 GMT) Lon: -72.05
Time Zone: US/Eastern Elev: 9 ft

Show me the last for .
Show Coded

Time T Td Feel RH Dir Speed Gust Alt SLP Vis Weather Sky Remarks
2018-12-18 23:56 24 11 13 56 310° 12 - 30.09 30.09 10 CLR 24-hr Min Temp (12am): 23.0°F
24-hr Max Temp (12am): 39.9°F
2018-12-18 22:56 24 11 10 56 300° 10 20 30.09 30.09 10 CLR None
2018-12-18 21:56 25 11 11 54 320° 13 21 30.08 30.08 10 CLR None
2018-12-18 20:56 26 11 10 52 310° 20 26 30.07 30.07 10 CLR None
2018-12-18 19:56 27 11 14 50 310° 14 20 30.07 30.07 10 CLR None
2018-12-18 18:56 28 11 17 48 310° 15 - 30.08 30.07 10 CLR 6-hr Min Temp (7pm): 28.0°F
6-hr Max Temp (7pm): 33.1°F
2018-12-18 17:56 29 11 17 46 300° 17 - 30.05 30.05 10 CLR None
2018-12-18 16:56 30 10 18 42 310° 13 20 30.04 30.03 10 CLR None
2018-12-18 15:56 32 10 20 39 320° 13 20 30.00 30.00 10 CLR None
2018-12-18 14:56 32 10 19 39 300° 17 25 29.97 29.96 10 CLR None
2018-12-18 13:56 33 9 20 35 300° 20 26 29.95 29.95 10 CLR Peak wind: 32 mph (28 kts) from 300° at 27 min
2018-12-18 12:56 33 9 19 35 320° 23 29 29.92 29.92 10 CLR Peak wind: 34 mph (30 kts) from 320° at 01 min
6-hr Min Temp (1pm): 25.0°F
6-hr Max Temp (1pm): 33.1°F
2018-12-18 11:56 32 9 17 37 320° 16 33 29.90 29.90 10 CLR Peak wind: 33 mph (29 kts) from 310° at 47 min
2018-12-18 10:56 30 9 14 40 330° 18 32 29.90 29.89 10 CLR Peak wind: 35 mph (31 kts) from 340° at 59 min
2018-12-18 09:56 28 8 11 42 330° 26 37 29.91 29.90 10 CLR Peak wind: 37 mph (33 kts) from 320° at 46 min
2018-12-18 08:56 26 8 9 45 330° 24 32 29.89 29.89 10 CLR Peak wind: 34 mph (30 kts) from 330° at 43 min
2018-12-18 07:56 25 9 8 49 320° 23 30 29.87 29.87 10 CLR Peak wind: 33 mph (29 kts) from 310° at 17 min
2018-12-18 06:56 25 9 7 49 320° 18 33 29.83 29.83 10 CLR Peak wind: 47 mph (41 kts) from 310° at 03 min
6-hr Min Temp (7am): 25.0°F
6-hr Max Temp (7am): 37.0°F
2018-12-18 05:56 26 8 7 45 320° 32 43 29.79 29.79 10 CLR Peak wind: 43 mph (38 kts) from 320° at 25 min
2018-12-18 04:56 27 11 9 50 320° 30 40 29.76 29.76 10 CLR Peak wind: 40 mph (35 kts) from 330° at 47 min
2018-12-18 03:56 30 17 14 58 330° 28 37 29.73 29.72 10 CLR Peak wind: 37 mph (33 kts) from 310° at 06 min
2018-12-18 02:56 34 16 19 47 300° 22 38 29.70 29.70 10 BKN050 OVC060 Peak wind: 37 mph (33 kts) from 290° at 50 min
2018-12-18 01:56 35 17 20 47 310° 24 39 29.69 29.69 10 FEW065 Peak wind: 39 mph (34 kts) from 330° at 50 min
2018-12-18 00:56 37 22 24 53 310° 16 31 29.65 29.65 10 BKN042 BKN049 OVC060 Peak wind: 33 mph (29 kts) from 310° at 36 min
1-hr Precip Total: Trace
6-hr Precip Total (1am): 0.00"
6-hr Min Temp (1am): 37.0°F
6-hr Max Temp (1am): 41.0°F

Support USWX by starting your Amazon purchase here.